Pago Pago, AS

3:52 AM SST on February 23, 2017 (GMT -1100)
Malaeimi | | Change Station

Elev 217 ft 14.32 °S, 170.74 °W | Updated 21 minutes ago

Mostly Cloudy
Mostly Cloudy
76.5 °F
Feels Like 76 °F
N
2.0
Wind Variable Wind from West
Gusts 2.0 mph

Today
High -- | Low -- °F
--% Chance of Precip.
Yesterday
High -- | Low -- °F
Precip. -- in
Pressure 30.10 in
Visibility 10.0 miles
Clouds Mostly Cloudy 3900 ft
Heat Index 76 °F
Dew Point 76 °F
Humidity 97%
Rainfall 0.10 in
Snow Depth Not available.
6:22 AM 6:49 PM
Waning Crescent, 10% visible
METAR PHKO 231353Z AUTO 08007KT 10SM BKN039 21/15 A3010 RMK AO2 SLP193 T02060150 TSNO
Pressure 30.10 in
Visibility 10.0 miles
Clouds Mostly Cloudy 3900 ft
Heat Index 76 °F
Dew Point 76 °F
Humidity 97%
Rainfall 0.10 in
Snow Depth Not available.
6:22 AM 6:49 PM
Waning Crescent, 10% visible
METAR PHKO 231353Z AUTO 08007KT 10SM BKN039 21/15 A3010 RMK AO2 SLP193 T02060150 TSNO

Get Your Daily Forecast Email!

Thanks for signing up!

Be on the lookout for a verification email in your inbox.

You'll start receiving the daily forecast at 8 AM.

×

10-Day Weather Forecast

No radar image for this location.
×

Almanac

Astronomy

Feb. 23, 2017 Rise Set
Actual Time
Civil Twilight
Nautical Twilight
Astronomical Twilight
Moon
Length of Visible Light
Length of Day
Tomorrow will be .
, % of the Moon is Illuminated

Today's Extremes

State Highs State Lows

Community

WunderPhotos

Upload Photos

1,962,540 photos uploaded!

WunderBlog® & News

Nearby

Air Quality

  Air Quality AQ Index Pollutant
Not available.

Snow Depth

Station Depth Elevation

Earthquake Activity

City Distance Mag. Time & Date
Minimum magnitude displayed is 2.5.

Coastal Water Temperatures

Place Temperature

Stations

Nearby Weather Stations

Station Location Temp. Windchill Dew Point Humidity Wind Precip. Elev Updated Type
                   

Watches & Warnings

There are currently no watches in effect.